Webcam

2016/06/25 18:50 EBBR 251850Z 30006KT 9999 FEW026 15/11 Q1017 NOSIG

Webcam image

--- Refresh now ---